Time;durP1;ratioP1;P1;durP2;ratioP2;P2;SDS_P1;SDS_P2;PMS_P1;PMS_P2;Temp;Humidity;BMP_temperature;BMP_pressure;BME280_temperature;BME280_humidity;BME280_pressure;Samples;Min_cycle;Max_cycle;Signal;HPM_P1;HPM_P2
2022/12/15 00:44:26;;;;;;;41.57;29.20;;;;;3.70;97757.00;;;;16577470;28;20673;-68
2022/12/15 01:25:53;;;;;;;50.73;32.50;;;;;3.20;97806.00;;;;16588350;28;20215;-68
2022/12/15 01:33:57;;;;;;;47.93;32.07;;;;;2.70;97815.00;;;;16563660;28;20274;-68
2022/12/15 01:42:00;;;;;;;53.47;30.37;;;;;2.20;97825.00;;;;16551605;28;20298;-68
2022/12/15 01:50:04;;;;;;;48.57;32.90;;;;;2.90;97825.00;;;;16585659;28;20782;-68
2022/12/15 01:58:07;;;;;;;56.30;35.50;;;;;3.20;97823.00;;;;16586849;28;20699;-68
2022/12/15 02:06:12;;;;;;;58.87;36.10;;;;;3.10;97835.00;;;;16563674;28;20700;-68
2022/12/15 02:14:20;;;;;;;49.67;32.40;;;;;3.00;97841.00;;;;16570787;28;20329;-68
2022/12/15 02:22:32;;;;;;;54.60;35.20;;;;;3.60;97834.00;;;;16585079;28;20315;-68
2022/12/15 02:31:48;;;;;;;49.07;31.27;;;;;2.30;97851.00;;;;16592653;28;20267;-68
2022/12/15 02:39:12;;;;;;;54.93;31.93;;;;;2.40;97851.00;;;;16558752;28;20308;-68
2022/12/15 02:47:24;;;;;;;51.90;32.33;;;;;3.00;97847.00;;;;16598118;28;20223;-68
2022/12/15 02:55:34;;;;;;;49.13;30.33;;;;;3.00;97861.00;;;;16596889;28;20257;-68
2022/12/15 03:03:39;;;;;;;51.73;33.13;;;;;2.50;97862.00;;;;16594456;28;20218;-68
2022/12/15 03:11:41;;;;;;;52.13;32.03;;;;;2.10;97877.00;;;;16558346;28;20227;-68
2022/12/15 03:19:45;;;;;;;46.87;29.57;;;;;2.30;97878.00;;;;16577723;28;20310;-68
2022/12/15 03:27:47;;;;;;;52.43;31.03;;;;;2.20;97890.00;;;;16596266;28;20254;-68
2022/12/15 03:35:51;;;;;;;50.80;32.07;;;;;2.70;97869.00;;;;16593587;28;20600;-68
2022/12/15 03:43:54;;;;;;;51.30;30.93;;;;;2.70;97884.00;;;;16593538;28;20837;-68
2022/12/15 03:51:58;;;;;;;54.43;31.20;;;;;2.50;97894.00;;;;16593610;28;20626;-68
2022/12/15 04:00:00;;;;;;;52.63;32.80;;;;;2.30;97908.00;;;;16592294;28;20362;-68
2022/12/15 04:08:05;;;;;;;47.80;28.73;;;;;2.30;97920.00;;;;16554911;28;20255;-69
2022/12/15 04:16:08;;;;;;;53.23;32.27;;;;;2.80;97906.00;;;;16751397;22;20717;-47
2022/12/15 05:39:18;;;;;;;51.30;33.07;;;;;2.90;97934.00;;;;16607144;28;20218;-66
2022/12/15 05:47:22;;;;;;;53.50;31.30;;;;;2.80;97944.00;;;;16637875;28;20321;-66
2022/12/15 05:55:24;;;;;;;52.37;33.57;;;;;3.10;97937.00;;;;16637549;28;20302;-66
2022/12/15 06:03:28;;;;;;;51.43;32.70;;;;;2.90;97953.00;;;;16562586;28;20223;-67
2022/12/15 06:11:31;;;;;;;55.57;35.53;;;;;3.00;97931.00;;;;16614678;28;20223;-67
2022/12/15 06:19:34;;;;;;;52.70;34.63;;;;;4.10;97951.00;;;;16556291;28;20473;-67
2022/12/15 06:27:37;;;;;;;89.73;79.93;;;;;3.00;97959.00;;;;16557408;28;20294;-69
2022/12/15 06:35:41;;;;;;;46.30;30.13;;;;;2.80;97951.00;;;;16593854;28;20218;-67
2022/12/15 06:43:48;;;;;;;47.07;30.07;;;;;2.80;97957.00;;;;16601321;28;20610;-67
2022/12/15 06:51:52;;;;;;;53.80;33.47;;;;;2.90;97947.00;;;;16578662;28;20281;-67
2022/12/15 06:59:55;;;;;;;52.30;33.03;;;;;2.90;97933.00;;;;16583724;28;20219;-68
2022/12/15 07:07:58;;;;;;;48.37;28.87;;;;;2.70;97952.00;;;;16583073;28;20231;-67
2022/12/15 07:16:02;;;;;;;49.20;32.23;;;;;3.40;97954.00;;;;16605420;28;20227;-68
2022/12/15 07:24:06;;;;;;;49.30;31.47;;;;;3.00;97958.00;;;;16646717;28;20239;-65
2022/12/15 07:32:09;;;;;;;48.10;32.57;;;;;3.70;97960.00;;;;16594841;28;20239;-65
2022/12/15 07:40:13;;;;;;;53.57;32.57;;;;;2.90;97954.00;;;;16613343;28;20301;-65
2022/12/15 07:48:15;;;;;;;47.87;31.40;;;;;2.90;97974.00;;;;16655062;28;20781;-65
2022/12/15 07:56:20;;;;;;;51.17;29.80;;;;;2.60;97978.00;;;;16633799;28;20309;-65
2022/12/15 08:04:22;;;;;;;50.03;31.97;;;;;3.30;97977.00;;;;16598559;28;20830;-66
2022/12/15 08:12:27;;;;;;;47.23;30.50;;;;;3.20;98006.00;;;;16627505;28;20230;-66
2022/12/15 08:20:30;;;;;;;45.20;29.87;;;;;3.20;98006.00;;;;16603170;28;20270;-66
2022/12/15 08:28:34;;;;;;;52.20;31.97;;;;;3.90;98023.00;;;;16593390;28;20826;-66
2022/12/15 08:36:37;;;;;;;49.73;31.90;;;;;3.40;98035.00;;;;16607485;28;20253;-65
2022/12/15 08:44:41;;;;;;;51.87;31.27;;;;;3.50;98002.00;;;;16626893;28;20720;-65
2022/12/15 08:52:43;;;;;;;48.13;29.70;;;;;3.60;98023.00;;;;16610492;28;20331;-66
2022/12/15 09:00:47;;;;;;;45.13;29.07;;;;;3.60;98041.00;;;;16586014;28;20707;-65
2022/12/15 09:08:50;;;;;;;48.90;29.37;;;;;3.30;98030.00;;;;16562141;28;20223;-65
2022/12/15 09:16:54;;;;;;;44.40;28.97;;;;;3.30;98018.00;;;;16573876;28;20248;-66
2022/12/15 09:24:56;;;;;;;49.37;31.50;;;;;4.30;97998.00;;;;16573904;28;20251;-66
2022/12/15 09:33:00;;;;;;;44.57;25.87;;;;;4.40;98001.00;;;;16571331;28;20298;-66
2022/12/15 09:41:09;;;;;;;43.93;26.93;;;;;4.00;98002.00;;;;16592081;28;20211;-66
2022/12/15 09:49:16;;;;;;;46.77;28.27;;;;;4.30;97994.00;;;;16585165;28;20699;-66
2022/12/15 09:57:36;;;;;;;45.00;29.83;;;;;4.20;98006.00;;;;16570353;28;20601;-66
2022/12/15 10:06:03;;;;;;;39.53;27.00;;;;;3.60;98018.00;;;;16563150;28;20301;-66
2022/12/15 10:14:15;;;;;;;43.13;27.73;;;;;4.10;98010.00;;;;16668723;22;20231;-48
2022/12/15 10:22:23;;;;;;;46.70;30.23;;;;;4.20;98002.00;;;;16653443;28;20242;-48
2022/12/15 10:30:25;;;;;;;41.40;27.20;;;;;4.00;98002.00;;;;16644661;28;20297;-48
2022/12/15 10:38:36;;;;;;;40.90;25.50;;;;;3.90;97985.00;;;;16640284;28;20283;-48
2022/12/15 10:46:39;;;;;;;47.03;28.70;;;;;4.40;97972.00;;;;16657167;28;20594;-49
2022/12/15 10:54:47;;;;;;;40.97;27.23;;;;;4.60;97973.00;;;;16659201;28;20230;-48
2022/12/15 11:02:50;;;;;;;41.10;28.47;;;;;4.50;97965.00;;;;16651697;28;20313;-47
2022/12/15 11:19:21;;;;;;;44.13;27.90;;;;;5.90;97911.00;;;;16664151;28;20265;-49
2022/12/15 11:27:28;;;;;;;41.90;29.70;;;;;6.30;97891.00;;;;16661733;28;20273;-48
2022/12/15 11:35:47;;;;;;;44.13;29.13;;;;;6.80;97909.00;;;;16657967;28;20248;-48
2022/12/15 11:44:11;;;;;;;41.13;28.60;;;;;6.00;97912.00;;;;16698761;28;20927;-48
2022/12/15 11:52:23;;;;;;;43.23;28.60;;;;;5.10;97905.00;;;;16714574;28;20226;-48
2022/12/15 12:00:27;;;;;;;45.77;29.40;;;;;5.10;97885.00;;;;16590412;28;20800;-49
2022/12/15 12:08:44;;;;;;;36.70;26.37;;;;;5.40;97850.00;;;;16597183;28;20219;-48
2022/12/15 12:16:54;;;;;;;44.43;28.20;;;;;5.50;97845.00;;;;16716289;28;20695;-48
2022/12/15 12:25:01;;;;;;;36.20;25.40;;;;;5.60;97835.00;;;;16717595;28;20234;-48
2022/12/15 12:33:11;;;;;;;38.73;25.73;;;;;6.10;97830.00;;;;16720168;28;20765;-49
2022/12/15 12:41:21;;;;;;;33.37;24.13;;;;;5.60;97822.00;;;;16707677;28;20299;-48
2022/12/15 12:49:29;;;;;;;33.83;22.87;;;;;6.50;97811.00;;;;16697259;28;20242;-48
2022/12/15 12:57:40;;;;;;;31.90;23.50;;;;;7.40;97788.00;;;;16655223;28;20215;-48
2022/12/15 13:05:46;;;;;;;37.70;21.80;;;;;7.10;97790.00;;;;16645353;28;20221;-48
2022/12/15 13:13:48;;;;;;;37.97;25.60;;;;;6.80;97796.00;;;;16669020;28;20256;-48
2022/12/15 13:21:56;;;;;;;32.40;22.67;;;;;6.40;97788.00;;;;16665590;28;20228;-48
2022/12/15 13:30:00;;;;;;;32.67;24.37;;;;;6.60;97748.00;;;;16652406;28;20316;-47
2022/12/15 13:38:06;;;;;;;39.07;26.27;;;;;7.20;97728.00;;;;16650317;28;20616;-47
2022/12/15 13:46:15;;;;;;;37.70;25.23;;;;;6.80;97720.00;;;;16710171;28;20699;-49
2022/12/15 13:54:21;;;;;;;34.93;24.40;;;;;6.30;97736.00;;;;16695159;28;20309;-48
2022/12/15 14:02:25;;;;;;;34.80;23.63;;;;;6.00;97739.00;;;;16651427;28;20258;-47
2022/12/15 14:10:38;;;;;;;40.53;24.80;;;;;6.90;97730.00;;;;16664704;28;20318;-48
2022/12/15 14:18:42;;;;;;;44.43;29.23;;;;;6.50;97730.00;;;;16714160;28;20620;-48
2022/12/15 14:26:46;;;;;;;33.70;24.73;;;;;6.10;97735.00;;;;16716910;28;20207;-48
2022/12/15 14:34:49;;;;;;;47.53;27.00;;;;;6.10;97741.00;;;;16727997;28;20371;-48
2022/12/15 14:42:54;;;;;;;40.13;26.57;;;;;6.10;97745.00;;;;16719993;28;20732;-48
2022/12/15 14:51:00;;;;;;;37.50;25.20;;;;;5.80;97744.00;;;;16646264;28;20236;-48
2022/12/15 14:59:17;;;;;;;40.10;24.50;;;;;6.30;97748.00;;;;16725661;28;20220;-49
2022/12/15 15:07:20;;;;;;;37.17;24.47;;;;;5.60;97751.00;;;;16687788;28;20237;-48
2022/12/15 15:15:26;;;;;;;38.73;25.87;;;;;5.70;97757.00;;;;16654742;28;20298;-49
2022/12/15 15:23:29;;;;;;;35.70;24.57;;;;;6.30;97737.00;;;;16676088;28;20273;-49
2022/12/15 15:31:36;;;;;;;37.50;24.70;;;;;6.60;97744.00;;;;16654616;28;20593;-49
2022/12/15 15:39:39;;;;;;;38.10;24.37;;;;;6.90;97765.00;;;;16659144;28;20221;-49
2022/12/15 15:47:45;;;;;;;36.67;23.50;;;;;7.20;97748.00;;;;16657058;28;20822;-49
2022/12/15 15:55:49;;;;;;;43.87;25.53;;;;;6.00;97762.00;;;;16653165;28;20730;-49
2022/12/15 16:03:53;;;;;;;43.33;25.67;;;;;5.40;97770.00;;;;16650646;28;20740;-49
2022/12/15 16:11:55;;;;;;;40.27;25.90;;;;;5.90;97758.00;;;;16664084;28;20231;-49
2022/12/15 16:19:59;;;;;;;38.40;25.57;;;;;6.50;97737.00;;;;16656998;28;20216;-49
2022/12/15 16:28:02;;;;;;;40.73;26.10;;;;;5.70;97756.00;;;;16654897;28;20235;-49
2022/12/15 16:36:13;;;;;;;32.90;20.70;;;;;6.10;97750.00;;;;16652020;28;20235;-49
2022/12/15 16:44:15;;;;;;;35.00;23.57;;;;;6.10;97751.00;;;;16649934;28;20291;-49
2022/12/15 16:52:20;;;;;;;32.53;22.07;;;;;6.80;97741.00;;;;16650478;28;20231;-49
2022/12/15 17:00:24;;;;;;;27.87;20.10;;;;;6.60;97736.00;;;;16652171;28;20402;-49
2022/12/15 17:08:33;;;;;;;29.83;21.40;;;;;6.30;97728.00;;;;16654393;28;20209;-49
2022/12/15 17:16:35;;;;;;;29.43;19.47;;;;;6.10;97727.00;;;;16652928;28;20246;-49
2022/12/15 17:24:40;;;;;;;34.97;21.70;;;;;6.50;97705.00;;;;16648580;28;20729;-49
2022/12/15 17:32:43;;;;;;;31.97;20.67;;;;;5.90;97683.00;;;;16644913;28;20238;-49
2022/12/15 17:40:48;;;;;;;34.97;24.07;;;;;6.50;97686.00;;;;16658724;28;20851;-49
2022/12/15 17:48:51;;;;;;;31.43;20.83;;;;;6.80;97682.00;;;;16609539;28;20215;-49
2022/12/15 17:56:54;;;;;;;32.77;21.17;;;;;6.00;97693.00;;;;16591110;28;20217;-48
2022/12/15 18:04:58;;;;;;;30.40;20.67;;;;;5.50;97701.00;;;;16617427;28;20219;-49
2022/12/15 18:13:02;;;;;;;26.90;19.30;;;;;6.60;97691.00;;;;16618646;28;20224;-49
2022/12/15 18:21:13;;;;;;;30.13;20.57;;;;;6.20;97682.00;;;;16626864;28;20362;-49
2022/12/15 18:29:18;;;;;;;26.70;18.90;;;;;5.80;97694.00;;;;16629482;28;20227;-49
2022/12/15 18:37:21;;;;;;;29.97;20.13;;;;;6.00;97684.00;;;;16601180;28;20205;-48
2022/12/15 18:45:26;;;;;;;34.60;23.63;;;;;6.40;97681.00;;;;16601959;28;20764;-49
2022/12/15 18:53:30;;;;;;;29.83;20.77;;;;;5.60;97686.00;;;;16623533;28;20579;-49
2022/12/15 19:01:34;;;;;;;36.63;23.97;;;;;5.70;97679.00;;;;16592094;28;20224;-48
2022/12/15 19:09:37;;;;;;;31.57;22.33;;;;;6.10;97672.00;;;;16599984;28;20240;-49
2022/12/15 19:26:01;;;;;;;32.67;22.13;;;;;5.70;97632.00;;;;16643243;28;20252;-48
2022/12/15 19:34:05;;;;;;;32.13;21.50;;;;;6.10;97613.00;;;;16631510;28;20316;-48
2022/12/15 19:42:16;;;;;;;30.23;21.83;;;;;5.70;97622.00;;;;16626976;28;20723;-49
2022/12/15 19:50:22;;;;;;;31.83;20.77;;;;;5.20;97634.00;;;;16614605;28;20793;-48
2022/12/15 19:58:29;;;;;;;32.43;20.73;;;;;5.80;97633.00;;;;16626330;28;20723;-49
2022/12/15 20:06:33;;;;;;;33.00;22.37;;;;;5.90;97638.00;;;;16623449;28;20580;-48
2022/12/15 20:14:35;;;;;;;34.33;23.07;;;;;5.00;97657.00;;;;16652172;28;20636;-48
2022/12/15 20:22:40;;;;;;;29.50;20.17;;;;;5.30;97637.00;;;;16657196;28;20219;-50
2022/12/15 20:30:42;;;;;;;30.40;21.07;;;;;5.10;97647.00;;;;16653536;28;20237;-49
2022/12/15 20:38:47;;;;;;;30.77;21.20;;;;;4.70;97658.00;;;;16658011;28;20206;-48
2022/12/15 20:46:50;;;;;;;33.90;22.50;;;;;4.60;97670.00;;;;16669147;22;20244;-79
2022/12/15 20:54:55;;;;;;;35.87;22.27;;;;;4.50;97667.00;;;;16743607;28;20239;-79
2022/12/15 21:02:57;;;;;;;35.40;22.30;;;;;4.00;97670.00;;;;16732267;28;20694;-78
2022/12/15 21:11:07;;;;;;;37.03;24.00;;;;;3.40;97678.00;;;;16733289;28;20311;-77
2022/12/15 21:19:11;;;;;;;36.47;25.07;;;;;3.70;97666.00;;;;16708654;28;20836;-77
2022/12/15 21:27:15;;;;;;;35.00;24.10;;;;;3.40;97666.00;;;;16689147;28;20549;-77
2022/12/15 21:35:19;;;;;;;32.83;23.20;;;;;3.30;97648.00;;;;16696682;28;20229;-77
2022/12/15 21:43:25;;;;;;;38.17;25.60;;;;;3.20;97649.00;;;;16706486;28;20360;-77
2022/12/15 21:51:30;;;;;;;36.30;23.70;;;;;3.00;97649.00;;;;16673875;28;1069002;-77
2022/12/15 21:59:34;;;;;;;35.17;22.77;;;;;3.00;97649.00;;;;16710840;28;20627;-76
2022/12/15 22:07:36;;;;;;;37.17;23.20;;;;;2.90;97658.00;;;;16723899;28;20564;-77
2022/12/15 22:15:40;;;;;;;36.57;24.77;;;;;2.80;97671.00;;;;16738373;28;20337;-77
2022/12/15 22:23:43;;;;;;;42.07;27.57;;;;;2.70;97675.00;;;;16732807;28;20302;-77
2022/12/15 22:31:47;;;;;;;39.53;23.83;;;;;2.50;97705.00;;;;16729370;28;20248;-77
2022/12/15 22:39:49;;;;;;;38.10;24.70;;;;;2.70;97711.00;;;;16755915;22;20246;-49
2022/12/15 22:47:54;;;;;;;45.40;29.17;;;;;2.80;97709.00;;;;16774120;28;20221;-48
2022/12/15 22:55:56;;;;;;;41.80;25.23;;;;;2.70;97711.00;;;;16775182;28;20296;-47
2022/12/15 23:04:00;;;;;;;42.43;28.83;;;;;2.40;97714.00;;;;16768121;28;20301;-48
2022/12/15 23:12:03;;;;;;;39.40;28.10;;;;;2.80;97704.00;;;;16765751;28;20303;-47
2022/12/15 23:20:08;;;;;;;45.10;28.47;;;;;2.80;97706.00;;;;16760767;28;20218;-48
2022/12/15 23:28:10;;;;;;;52.40;31.07;;;;;2.40;97714.00;;;;16766931;28;20761;-47
2022/12/15 23:36:14;;;;;;;46.33;29.23;;;;;2.10;97720.00;;;;16756181;28;20234;-47
2022/12/15 23:44:17;;;;;;;49.83;32.37;;;;;2.10;97723.00;;;;16761953;28;20209;-48
2022/12/15 23:52:21;;;;;;;53.10;32.97;;;;;1.90;97728.00;;;;16763178;28;20231;-47
